sensor_id;sensor_type;location;lat;lon;timestamp;pressure;altitude;pressure_sealevel;temperature;humidity
79000;BME280;68406;53.914;27.416;2023-09-18T00:01:36;991.6;;;14.9;70.1
79000;BME280;68406;53.914;27.416;2023-09-18T00:06:32;991.6;;;14.9;70.4
79000;BME280;68406;53.914;27.416;2023-09-18T00:11:00;991.6;;;14.9;70.8
79000;BME280;68406;53.914;27.416;2023-09-18T00:15:56;991.6;;;14.9;71.1
79000;BME280;68406;53.914;27.416;2023-09-18T00:21:00;991.6;;;15;70.6
79000;BME280;68406;53.914;27.416;2023-09-18T00:25:54;991.6;;;15;70.6
79000;BME280;68406;53.914;27.416;2023-09-18T00:31:02;991.5;;;15;70.3
79000;BME280;68406;53.914;27.416;2023-09-18T00:36:14;991.5;;;14.9;70
79000;BME280;68406;53.914;27.416;2023-09-18T00:41:34;991.6;;;14.8;70.1
79000;BME280;68406;53.914;27.416;2023-09-18T00:46:26;991.5;;;14.7;70.5
79000;BME280;68406;53.914;27.416;2023-09-18T00:51:34;991.5;;;14.6;70.7
79000;BME280;68406;53.914;27.416;2023-09-18T00:56:36;991.6;;;14.6;70.7
79000;BME280;68406;53.914;27.416;2023-09-18T01:01:06;991.6;;;14.5;71.5
79000;BME280;68406;53.914;27.416;2023-09-18T01:06:06;991.6;;;14.5;71.4
79000;BME280;68406;53.914;27.416;2023-09-18T01:11:02;991.5;;;14.4;71.8
79000;BME280;68406;53.914;27.416;2023-09-18T01:16:01;991.5;;;14.4;72.2
79000;BME280;68406;53.914;27.416;2023-09-18T01:21:28;991.5;;;14.3;72.8
79000;BME280;68406;53.914;27.416;2023-09-18T01:25:54;991.4;;;14.3;72.6
79000;BME280;68406;53.914;27.416;2023-09-18T01:31:36;991.4;;;14.3;73.1
79000;BME280;68406;53.914;27.416;2023-09-18T01:36:26;991.4;;;14.3;72.9
79000;BME280;68406;53.914;27.416;2023-09-18T01:41:36;991.4;;;14.3;72.4
79000;BME280;68406;53.914;27.416;2023-09-18T01:46:36;991.4;;;14.2;73.6
79000;BME280;68406;53.914;27.416;2023-09-18T01:51:00;991.4;;;14.3;73.7
79000;BME280;68406;53.914;27.416;2023-09-18T01:55:54;991.5;;;14.3;72.9
79000;BME280;68406;53.914;27.416;2023-09-18T02:00:54;991.5;;;14.3;72.5
79000;BME280;68406;53.914;27.416;2023-09-18T02:05:54;991.5;;;14.4;72.4
79000;BME280;68406;53.914;27.416;2023-09-18T02:11:20;991.5;;;14.6;72.2
79000;BME280;68406;53.914;27.416;2023-09-18T02:16:14;991.5;;;14.7;71.3
79000;BME280;68406;53.914;27.416;2023-09-18T02:21:36;991.6;;;14.7;71.3
79000;BME280;68406;53.914;27.416;2023-09-18T02:26:28;991.6;;;14.7;71.4
79000;BME280;68406;53.914;27.416;2023-09-18T02:31:36;991.6;;;14.6;71.5
79000;BME280;68406;53.914;27.416;2023-09-18T02:35:46;991.6;;;14.7;71.5
79000;BME280;68406;53.914;27.416;2023-09-18T02:41:22;991.5;;;14.8;71.5
79000;BME280;68406;53.914;27.416;2023-09-18T02:46:00;991.4;;;14.8;71
79000;BME280;68406;53.914;27.416;2023-09-18T02:51:10;991.4;;;14.8;70.6
79000;BME280;68406;53.914;27.416;2023-09-18T02:56:14;991.4;;;14.6;71.4
79000;BME280;68406;53.914;27.416;2023-09-18T03:01:36;991.4;;;14.4;72
79000;BME280;68406;53.914;27.416;2023-09-18T03:06:14;991.4;;;14.3;72.1
79000;BME280;68406;53.914;27.416;2023-09-18T03:11:10;991.4;;;14.2;72.3
79000;BME280;68406;53.914;27.416;2023-09-18T03:16:28;991.4;;;14.1;73
79000;BME280;68406;53.914;27.416;2023-09-18T03:21:20;991.3;;;14;73.4
79000;BME280;68406;53.914;27.416;2023-09-18T03:26:36;991.3;;;14;73.8
79000;BME280;68406;53.914;27.416;2023-09-18T03:31:22;991.3;;;14;73.5
79000;BME280;68406;53.914;27.416;2023-09-18T03:36:00;991.2;;;14;73.6
79000;BME280;68406;53.914;27.416;2023-09-18T03:40:54;991.3;;;14;73.8
79000;BME280;68406;53.914;27.416;2023-09-18T03:46:14;991.3;;;13.9;73.8
79000;BME280;68406;53.914;27.416;2023-09-18T03:51:36;991.3;;;13.9;73.6
79000;BME280;68406;53.914;27.416;2023-09-18T03:56:14;991.3;;;13.9;73.7
79000;BME280;68406;53.914;27.416;2023-09-18T04:01:36;991.3;;;13.9;73.9
79000;BME280;68406;53.914;27.416;2023-09-18T04:06:02;991.4;;;14.1;73.6
79000;BME280;68406;53.914;27.416;2023-09-18T04:11:22;991.4;;;14.2;72.7
79000;BME280;68406;53.914;27.416;2023-09-18T04:16:34;991.4;;;14.3;72.1
79000;BME280;68406;53.914;27.416;2023-09-18T04:21:20;991.4;;;14.4;71.7
79000;BME280;68406;53.914;27.416;2023-09-18T04:25:56;991.4;;;14.4;71.4
79000;BME280;68406;53.914;27.416;2023-09-18T04:31:02;991.4;;;14.6;71.5
79000;BME280;68406;53.914;27.416;2023-09-18T04:36:16;991.4;;;14.8;71.6
79000;BME280;68406;53.914;27.416;2023-09-18T04:41:38;991.4;;;15.1;71.4
79000;BME280;68406;53.914;27.416;2023-09-18T04:46:16;991.4;;;15.5;70.6
79000;BME280;68406;53.914;27.416;2023-09-18T04:51:02;991.4;;;15.8;69.8
79000;BME280;68406;53.914;27.416;2023-09-18T04:56:12;991.3;;;16;69.2
79000;BME280;68406;53.914;27.416;2023-09-18T05:01:24;991.3;;;16.3;68.7
79000;BME280;68406;53.914;27.416;2023-09-18T05:06:38;991.4;;;16.7;67.6
79000;BME280;68406;53.914;27.416;2023-09-18T05:11:24;991.3;;;17.1;66.5
79000;BME280;68406;53.914;27.416;2023-09-18T05:15:56;991.3;;;17.3;65.6
79000;BME280;68406;53.914;27.416;2023-09-18T05:21:10;991.3;;;17.2;65.4
79000;BME280;68406;53.914;27.416;2023-09-18T05:26:14;991.3;;;17.1;65.6
79000;BME280;68406;53.914;27.416;2023-09-18T05:31:22;991.2;;;17.3;65.5
79000;BME280;68406;53.914;27.416;2023-09-18T05:36:14;991.2;;;17.4;65
79000;BME280;68406;53.914;27.416;2023-09-18T05:40:54;991.2;;;17.4;64.9
79000;BME280;68406;53.914;27.416;2023-09-18T05:46:20;991.1;;;17.5;64.7
79000;BME280;68406;53.914;27.416;2023-09-18T05:51:22;991.1;;;17.5;64.4
79000;BME280;68406;53.914;27.416;2023-09-18T05:56:36;991.1;;;17.6;64.4
79000;BME280;68406;53.914;27.416;2023-09-18T06:01:22;991.1;;;17.7;64.4
79000;BME280;68406;53.914;27.416;2023-09-18T06:06:06;991;;;17.9;64.1
79000;BME280;68406;53.914;27.416;2023-09-18T06:11:10;991;;;18.2;63.5
79000;BME280;68406;53.914;27.416;2023-09-18T06:16:16;991;;;18.5;62.8
79000;BME280;68406;53.914;27.416;2023-09-18T06:21:36;991.1;;;18.7;62.1
79000;BME280;68406;53.914;27.416;2023-09-18T06:26:16;991.1;;;18.8;61.7
79000;BME280;68406;53.914;27.416;2023-09-18T06:31:14;991.1;;;18.8;61.6
79000;BME280;68406;53.914;27.416;2023-09-18T06:36:28;991;;;18.8;61.5
79000;BME280;68406;53.914;27.416;2023-09-18T06:41:24;991.1;;;19;61
79000;BME280;68406;53.914;27.416;2023-09-18T06:46:36;991.1;;;19.2;60.4
79000;BME280;68406;53.914;27.416;2023-09-18T06:51:24;991.1;;;19.5;59.8
79000;BME280;68406;53.914;27.416;2023-09-18T06:55:56;991.2;;;19.8;59.3
79000;BME280;68406;53.914;27.416;2023-09-18T07:01:30;991.2;;;20;58.8
79000;BME280;68406;53.914;27.416;2023-09-18T07:06:16;991.2;;;20.2;58.5
79000;BME280;68406;53.914;27.416;2023-09-18T07:11:38;991.2;;;20.4;58.1
79000;BME280;68406;53.914;27.416;2023-09-18T07:16:02;991.2;;;20.6;57.4
79000;BME280;68406;53.914;27.416;2023-09-18T07:20:56;991.3;;;20.8;57.1
79000;BME280;68406;53.914;27.416;2023-09-18T07:26:28;991.3;;;20.9;57
79000;BME280;68406;53.914;27.416;2023-09-18T07:31:24;991.3;;;21.1;56.7
79000;BME280;68406;53.914;27.416;2023-09-18T07:36:38;991.3;;;21.3;56.4
79000;BME280;68406;53.914;27.416;2023-09-18T07:41:36;991.2;;;21.6;55.8
79000;BME280;68406;53.914;27.416;2023-09-18T07:45:56;991.1;;;22;55.1
79000;BME280;68406;53.914;27.416;2023-09-18T07:50:56;991.1;;;22.5;54
79000;BME280;68406;53.914;27.416;2023-09-18T07:56:16;991.1;;;23.2;52.6
79000;BME280;68406;53.914;27.416;2023-09-18T08:01:38;991.1;;;23.8;51.5
79000;BME280;68406;53.914;27.416;2023-09-18T08:06:10;991.1;;;24.5;50.1
79000;BME280;68406;53.914;27.416;2023-09-18T08:10:56;991;;;24.8;49.1
79000;BME280;68406;53.914;27.416;2023-09-18T08:16:28;991;;;24.8;49.1
79000;BME280;68406;53.914;27.416;2023-09-18T08:21:10;991;;;24.9;48.6
79000;BME280;68406;53.914;27.416;2023-09-18T08:26:38;991.1;;;24.2;48.5
79000;BME280;68406;53.914;27.416;2023-09-18T08:31:24;991.1;;;23.8;49.4
79000;BME280;68406;53.914;27.416;2023-09-18T08:36:02;991.1;;;24;49.7
79000;BME280;68406;53.914;27.416;2023-09-18T08:41:14;991.1;;;24;50
79000;BME280;68406;53.914;27.416;2023-09-18T08:46:10;991.1;;;24;50.1
79000;BME280;68406;53.914;27.416;2023-09-18T08:51:38;991;;;24.1;50.5
79000;BME280;68406;53.914;27.416;2023-09-18T08:56:10;991;;;24.3;50.1
79000;BME280;68406;53.914;27.416;2023-09-18T09:01:02;991.1;;;24.6;49.4
79000;BME280;68406;53.914;27.416;2023-09-18T09:06:38;991.1;;;24.3;49.2
79000;BME280;68406;53.914;27.416;2023-09-18T09:11:24;991.1;;;24.3;48.8
79000;BME280;68406;53.914;27.416;2023-09-18T09:16:38;991;;;24.4;48.5
79000;BME280;68406;53.914;27.416;2023-09-18T09:21:24;991;;;24.5;48
79000;BME280;68406;53.914;27.416;2023-09-18T09:26:11;991;;;24.9;47.1
79000;BME280;68406;53.914;27.416;2023-09-18T09:30:59;991;;;24.8;47.2
79000;BME280;68406;53.914;27.416;2023-09-18T09:36:10;991;;;25.1;46.8
79000;BME280;68406;53.914;27.416;2023-09-18T09:41:38;991;;;25.6;46.1
79000;BME280;68406;53.914;27.416;2023-09-18T09:46:08;991;;;26.1;45.4
79000;BME280;68406;53.914;27.416;2023-09-18T09:51:22;991;;;26.1;45.4
79000;BME280;68406;53.914;27.416;2023-09-18T09:56:46;990.9;;;26.8;44.5
79000;BME280;68406;53.914;27.416;2023-09-18T10:01:24;990.9;;;27.3;43.2
79000;BME280;68406;53.914;27.416;2023-09-18T10:06:39;990.8;;;27.6;42
79000;BME280;68406;53.914;27.416;2023-09-18T10:11:24;990.8;;;27.7;41.5
79000;BME280;68406;53.914;27.416;2023-09-18T10:16:32;990.8;;;27.2;41.9
79000;BME280;68406;53.914;27.416;2023-09-18T10:21:40;990.8;;;27.4;41.7
79000;BME280;68406;53.914;27.416;2023-09-18T10:26:18;990.7;;;27.5;41.5
79000;BME280;68406;53.914;27.416;2023-09-18T10:31:38;990.6;;;28;40.7
79000;BME280;68406;53.914;27.416;2023-09-18T10:36:16;990.6;;;28.3;40.1
79000;BME280;68406;53.914;27.416;2023-09-18T10:41:15;990.6;;;29.3;38.5
79000;BME280;68406;53.914;27.416;2023-09-18T10:46:30;990.5;;;30.8;35.9
79000;BME280;68406;53.914;27.416;2023-09-18T10:51:24;990.4;;;33.2;33.2
79000;BME280;68406;53.914;27.416;2023-09-18T10:56:38;990.4;;;34.2;31.1
79000;BME280;68406;53.914;27.416;2023-09-18T11:01:24;990.3;;;33.2;31.2
79000;BME280;68406;53.914;27.416;2023-09-18T11:06:03;990.4;;;33.4;30.7
79000;BME280;68406;53.914;27.416;2023-09-18T11:11:13;990.3;;;33.5;30.8
79000;BME280;68406;53.914;27.416;2023-09-18T11:15:59;990.3;;;35.1;29.3
79000;BME280;68406;53.914;27.416;2023-09-18T11:21:39;990.2;;;37.7;27
79000;BME280;68406;53.914;27.416;2023-09-18T11:26:16;990.2;;;38.8;25.3
79000;BME280;68406;53.914;27.416;2023-09-18T11:31:16;990.1;;;39.2;24.3
79000;BME280;68406;53.914;27.416;2023-09-18T11:36:30;990.1;;;39.3;23.9
79000;BME280;68406;53.914;27.416;2023-09-18T11:41:25;990.1;;;39.6;22.9
79000;BME280;68406;53.914;27.416;2023-09-18T11:46:36;990;;;39.1;23.1
79000;BME280;68406;53.914;27.416;2023-09-18T11:50:59;990;;;39.6;22.7
79000;BME280;68406;53.914;27.416;2023-09-18T11:56:09;990;;;40.1;22.3
79000;BME280;68406;53.914;27.416;2023-09-18T12:00:56;989.9;;;40.7;21.7
79000;BME280;68406;53.914;27.416;2023-09-18T12:06:15;989.8;;;41.6;21
79000;BME280;68406;53.914;27.416;2023-09-18T12:11:36;989.8;;;43.6;19.7
79000;BME280;68406;53.914;27.416;2023-09-18T12:16:16;989.7;;;44.5;18.4
79000;BME280;68406;53.914;27.416;2023-09-18T12:21:10;989.8;;;42.3;19.1
79000;BME280;68406;53.914;27.416;2023-09-18T12:26:26;989.8;;;41.3;19.7
79000;BME280;68406;53.914;27.416;2023-09-18T12:31:24;989.8;;;40.1;20.5
79000;BME280;68406;53.914;27.416;2023-09-18T12:36:36;989.7;;;37.2;23.2
79000;BME280;68406;53.914;27.416;2023-09-18T12:40:58;989.8;;;34.3;26.3
79000;BME280;68406;53.914;27.416;2023-09-18T12:46:03;989.7;;;32.2;29.3
79000;BME280;68406;53.914;27.416;2023-09-18T12:51:14;989.8;;;30.2;32.4
79000;BME280;68406;53.914;27.416;2023-09-18T12:56:24;989.8;;;29.1;34.2
79000;BME280;68406;53.914;27.416;2023-09-18T13:01:40;989.7;;;28.1;36.2
79000;BME280;68406;53.914;27.416;2023-09-18T13:06:17;989.7;;;27.6;37.4
79000;BME280;68406;53.914;27.416;2023-09-18T13:11:14;989.6;;;27.1;38.7
79000;BME280;68406;53.914;27.416;2023-09-18T13:16:28;989.6;;;26.5;40.1
79000;BME280;68406;53.914;27.416;2023-09-18T13:21:24;989.6;;;26.5;40.7
79000;BME280;68406;53.914;27.416;2023-09-18T13:26:22;989.5;;;26.1;42.2
79000;BME280;68406;53.914;27.416;2023-09-18T13:31:24;989.4;;;26.1;43.1
79000;BME280;68406;53.914;27.416;2023-09-18T13:36:08;989.4;;;26.3;43.2
79000;BME280;68406;53.914;27.416;2023-09-18T13:41:06;989.3;;;27.3;41.9
79000;BME280;68406;53.914;27.416;2023-09-18T13:46:16;989.3;;;28.9;39.6
79000;BME280;68406;53.914;27.416;2023-09-18T13:51:38;989.2;;;31.8;35.5
79000;BME280;68406;53.914;27.416;2023-09-18T13:56:24;989.2;;;37.8;28.5
79000;BME280;68406;53.914;27.416;2023-09-18T14:01:12;989.2;;;37.6;27.3
79000;BME280;68406;53.914;27.416;2023-09-18T14:06:19;989.1;;;37.9;26.3
79000;BME280;68406;53.914;27.416;2023-09-18T14:10:58;989.1;;;39.3;24.7
79000;BME280;68406;53.914;27.416;2023-09-18T14:16:38;989;;;43.6;20.8
79000;BME280;68406;53.914;27.416;2023-09-18T14:21:24;989;;;45.3;18.7
79000;BME280;68406;53.914;27.416;2023-09-18T14:25:56;989;;;44.5;18.7
79000;BME280;68406;53.914;27.416;2023-09-18T14:30:56;989;;;44.9;18.2
79000;BME280;68406;53.914;27.416;2023-09-18T14:36:14;989;;;44.7;17.7
79000;BME280;68406;53.914;27.416;2023-09-18T14:41:38;989;;;41.1;20.1
79000;BME280;68406;53.914;27.416;2023-09-18T14:45:58;988.9;;;36.2;24.7
79000;BME280;68406;53.914;27.416;2023-09-18T14:51:08;988.9;;;36.5;24.9
79000;BME280;68406;53.914;27.416;2023-09-18T14:56:30;988.8;;;37.6;24.2
79000;BME280;68406;53.914;27.416;2023-09-18T15:01:38;988.7;;;38.5;23.7
79000;BME280;68406;53.914;27.416;2023-09-18T15:06:36;988.7;;;38.7;23.5
79000;BME280;68406;53.914;27.416;2023-09-18T15:11:02;988.7;;;38.5;23.8
79000;BME280;68406;53.914;27.416;2023-09-18T15:16:02;988.7;;;37.8;24.4
79000;BME280;68406;53.914;27.416;2023-09-18T15:20:56;988.6;;;38.1;24.3
79000;BME280;68406;53.914;27.416;2023-09-18T15:26:16;988.6;;;35.2;27.2
79000;BME280;68406;53.914;27.416;2023-09-18T15:31:38;988.5;;;31.6;31.7
79000;BME280;68406;53.914;27.416;2023-09-18T15:36:36;988.6;;;29.4;35.4
79000;BME280;68406;53.914;27.416;2023-09-18T15:40:56;988.6;;;29.2;36.7
79000;BME280;68406;53.914;27.416;2023-09-18T15:46:04;988.5;;;30.1;36
79000;BME280;68406;53.914;27.416;2023-09-18T15:51:24;988.5;;;29.7;37.1
79000;BME280;68406;53.914;27.416;2023-09-18T15:56:38;988.5;;;29.8;37.4
79000;BME280;68406;53.914;27.416;2023-09-18T16:01:06;988.6;;;29;38.7
79000;BME280;68406;53.914;27.416;2023-09-18T16:06:02;988.6;;;28;40.9
79000;BME280;68406;53.914;27.416;2023-09-18T16:10:56;988.4;;;26.9;43.1
79000;BME280;68406;53.914;27.416;2023-09-18T16:16:16;988.3;;;26.2;44.7
79000;BME280;68406;53.914;27.416;2023-09-18T16:21:39;988.3;;;25.3;47
79000;BME280;68406;53.914;27.416;2023-09-18T16:26:30;988.4;;;24.7;48.9
79000;BME280;68406;53.914;27.416;2023-09-18T16:31:12;988.3;;;24.3;50
79000;BME280;68406;53.914;27.416;2023-09-18T16:36:30;988.3;;;23.8;51.8
79000;BME280;68406;53.914;27.416;2023-09-18T16:41:38;988.3;;;23.4;53.2
79000;BME280;68406;53.914;27.416;2023-09-18T16:46:38;988.3;;;23.1;54.2
79000;BME280;68406;53.914;27.416;2023-09-18T16:50:56;988.3;;;22.8;55.7
79000;BME280;68406;53.914;27.416;2023-09-18T16:55:56;988.3;;;22.5;56.6
79000;BME280;68406;53.914;27.416;2023-09-18T17:01:06;988.3;;;22.4;57.1
79000;BME280;68406;53.914;27.416;2023-09-18T17:05:56;988.3;;;22.2;58
79000;BME280;68406;53.914;27.416;2023-09-18T17:11:39;988.3;;;22.1;58.4
79000;BME280;68406;53.914;27.416;2023-09-18T17:15:59;988.2;;;22;58.7
79000;BME280;68406;53.914;27.416;2023-09-18T17:20:56;988.2;;;21.9;59.2
79000;BME280;68406;53.914;27.416;2023-09-18T17:26:31;988.2;;;21.8;60.1
79000;BME280;68406;53.914;27.416;2023-09-18T17:31:24;988.2;;;21.8;59.9
79000;BME280;68406;53.914;27.416;2023-09-18T17:36:22;988.2;;;21.6;60.6
79000;BME280;68406;53.914;27.416;2023-09-18T17:41:02;988.2;;;21.5;61.2
79000;BME280;68406;53.914;27.416;2023-09-18T17:45:57;988.2;;;21.5;61.3
79000;BME280;68406;53.914;27.416;2023-09-18T17:51:03;988.2;;;21.4;61.3
79000;BME280;68406;53.914;27.416;2023-09-18T17:56:16;988.2;;;21.3;61
79000;BME280;68406;53.914;27.416;2023-09-18T18:01:39;988.2;;;21.3;60.9
79000;BME280;68406;53.914;27.416;2023-09-18T18:06:32;988.2;;;21.3;60.5
79000;BME280;68406;53.914;27.416;2023-09-18T18:11:26;988.1;;;21.3;60.4
79000;BME280;68406;53.914;27.416;2023-09-18T18:16:31;988.1;;;21.2;60
79000;BME280;68406;53.914;27.416;2023-09-18T18:21:11;988.1;;;21.2;59.4
79000;BME280;68406;53.914;27.416;2023-09-18T18:26:39;988.1;;;21.2;59.2
79000;BME280;68406;53.914;27.416;2023-09-18T18:30:56;988.1;;;21.2;58.7
79000;BME280;68406;53.914;27.416;2023-09-18T18:35:56;988.1;;;21.1;58.2
79000;BME280;68406;53.914;27.416;2023-09-18T18:41:02;988;;;21.2;58.1
79000;BME280;68406;53.914;27.416;2023-09-18T18:46:40;988;;;21.2;57.6
79000;BME280;68406;53.914;27.416;2023-09-18T18:51:24;987.9;;;21.2;57.7
79000;BME280;68406;53.914;27.416;2023-09-18T18:56:23;987.9;;;21.1;57.9
79000;BME280;68406;53.914;27.416;2023-09-18T19:01:19;987.9;;;21.1;57.9
79000;BME280;68406;53.914;27.416;2023-09-18T19:06:09;987.9;;;21.1;57.7
79000;BME280;68406;53.914;27.416;2023-09-18T19:11:38;987.8;;;21.1;57.5
79000;BME280;68406;53.914;27.416;2023-09-18T19:16:09;987.8;;;20.9;57.6
79000;BME280;68406;53.914;27.416;2023-09-18T19:21:07;987.8;;;20.8;57.8
79000;BME280;68406;53.914;27.416;2023-09-18T19:26:17;987.8;;;20.7;57.8
79000;BME280;68406;53.914;27.416;2023-09-18T19:31:25;987.8;;;20.5;58
79000;BME280;68406;53.914;27.416;2023-09-18T19:36:38;987.8;;;20.4;57.9
79000;BME280;68406;53.914;27.416;2023-09-18T19:41:25;987.8;;;20.4;57.8
79000;BME280;68406;53.914;27.416;2023-09-18T19:46:23;987.8;;;20.3;57.8
79000;BME280;68406;53.914;27.416;2023-09-18T19:51:13;987.7;;;20.3;57.9
79000;BME280;68406;53.914;27.416;2023-09-18T19:56:09;987.7;;;20.2;57.7
79000;BME280;68406;53.914;27.416;2023-09-18T20:01:25;987.7;;;20.2;57.6
79000;BME280;68406;53.914;27.416;2023-09-18T20:05:55;987.7;;;20.1;57.5
79000;BME280;68406;53.914;27.416;2023-09-18T20:10:57;987.7;;;20;57.3
79000;BME280;68406;53.914;27.416;2023-09-18T20:15:57;987.7;;;20;57.3
79000;BME280;68406;53.914;27.416;2023-09-18T20:21:25;987.7;;;19.9;57.3
79000;BME280;68406;53.914;27.416;2023-09-18T20:26:37;987.7;;;19.9;57.4
79000;BME280;68406;53.914;27.416;2023-09-18T20:31:25;987.7;;;19.9;57.3
79000;BME280;68406;53.914;27.416;2023-09-18T20:36:21;987.6;;;19.9;57.5
79000;BME280;68406;53.914;27.416;2023-09-18T20:41:03;987.6;;;19.8;57.5
79000;BME280;68406;53.914;27.416;2023-09-18T20:46:03;987.5;;;19.8;57.4
79000;BME280;68406;53.914;27.416;2023-09-18T20:51:39;987.5;;;19.9;57.2
79000;BME280;68406;53.914;27.416;2023-09-18T20:56:03;987.5;;;19.9;56.9
79000;BME280;68406;53.914;27.416;2023-09-18T21:01:03;987.4;;;19.9;56.7
79000;BME280;68406;53.914;27.416;2023-09-18T21:06:03;987.4;;;19.9;56.4
79000;BME280;68406;53.914;27.416;2023-09-18T21:11:39;987.3;;;19.9;56.1
79000;BME280;68406;53.914;27.416;2023-09-18T21:16:39;987.3;;;19.9;55.9
79000;BME280;68406;53.914;27.416;2023-09-18T21:21:25;987.4;;;19.9;55.7
79000;BME280;68406;53.914;27.416;2023-09-18T21:26:23;987.4;;;19.9;55.5
79000;BME280;68406;53.914;27.416;2023-09-18T21:31:29;987.4;;;19.8;55.6
79000;BME280;68406;53.914;27.416;2023-09-18T21:36:12;987.4;;;19.8;55.8
79000;BME280;68406;53.914;27.416;2023-09-18T21:41:39;987.4;;;19.7;56
79000;BME280;68406;53.914;27.416;2023-09-18T21:46:09;987.4;;;19.6;56.1
79000;BME280;68406;53.914;27.416;2023-09-18T21:50:57;987.4;;;19.6;56.4
79000;BME280;68406;53.914;27.416;2023-09-18T21:56:03;987.4;;;19.6;56.6
79000;BME280;68406;53.914;27.416;2023-09-18T22:01:25;987.3;;;19.6;56.7
79000;BME280;68406;53.914;27.416;2023-09-18T22:06:39;987.3;;;19.5;56.8
79000;BME280;68406;53.914;27.416;2023-09-18T22:11:25;987.3;;;19.3;56.8
79000;BME280;68406;53.914;27.416;2023-09-18T22:16:17;987.3;;;19.2;56.9
79000;BME280;68406;53.914;27.416;2023-09-18T22:21:03;987.2;;;19.1;57
79000;BME280;68406;53.914;27.416;2023-09-18T22:26:03;987.2;;;19.1;57.2
79000;BME280;68406;53.914;27.416;2023-09-18T22:31:39;987.2;;;19;57.2
79000;BME280;68406;53.914;27.416;2023-09-18T22:36:09;987.2;;;19;57.2
79000;BME280;68406;53.914;27.416;2023-09-18T22:56:09;987.1;;;19;56.5
79000;BME280;68406;53.914;27.416;2023-09-18T23:01:25;987.1;;;19;56.4
79000;BME280;68406;53.914;27.416;2023-09-18T23:06:17;987.1;;;19;56.1
79000;BME280;68406;53.914;27.416;2023-09-18T23:11:15;987;;;19;55.8
79000;BME280;68406;53.914;27.416;2023-09-18T23:16:09;986.9;;;19;55.6
79000;BME280;68406;53.914;27.416;2023-09-18T23:21:39;986.9;;;18.9;55.3
79000;BME280;68406;53.914;27.416;2023-09-18T23:25:57;986.8;;;18.8;55.1
79000;BME280;68406;53.914;27.416;2023-09-18T23:30:57;986.7;;;18.8;55.1
79000;BME280;68406;53.914;27.416;2023-09-18T23:36:11;986.7;;;18.7;54.9
79000;BME280;68406;53.914;27.416;2023-09-18T23:40:59;986.6;;;18.6;54.7
79000;BME280;68406;53.914;27.416;2023-09-18T23:46:39;986.5;;;18.5;54.9
79000;BME280;68406;53.914;27.416;2023-09-18T23:51:13;986.5;;;18.5;54.9
79000;BME280;68406;53.914;27.416;2023-09-18T23:55:59;986.5;;;18.4;55
